Time;durP1;ratioP1;P1;durP2;ratioP2;P2;SDS_P1;SDS_P2;PMS_P1;PMS_P2;Temp;Humidity;BMP_temperature;BMP_pressure;BME280_temperature;BME280_humidity;BME280_pressure;Samples;Min_cycle;Max_cycle;Signal;HPM_P1;HPM_P2
2024/03/28 00:01:26;;;;;;;4.90;3.58;;;9.20;99.90;;;;;;5000814;28;20029;-29
2024/03/28 00:03:52;;;;;;;5.30;4.18;;;9.20;99.90;;;;;;5000200;28;20381;-31
2024/03/28 00:06:23;;;;;;;5.20;3.97;;;9.20;99.90;;;;;;5000700;28;20034;-33
2024/03/28 00:08:50;;;;;;;4.60;4.20;;;9.20;99.90;;;;;;5000658;28;20018;-34
2024/03/28 00:11:15;;;;;;;4.78;4.38;;;9.20;99.90;;;;;;4999899;28;20027;-36
2024/03/28 00:13:41;;;;;;;4.82;4.30;;;9.20;99.90;;;;;;5000429;28;20018;-33
2024/03/28 00:16:06;;;;;;;6.88;5.88;;;9.20;99.90;;;;;;5000392;28;20411;-34
2024/03/28 00:18:32;;;;;;;7.05;5.10;;;9.20;99.90;;;;;;4999400;28;20029;-35
2024/03/28 00:21:02;;;;;;;6.50;5.05;;;9.20;99.90;;;;;;4999556;28;20029;-33
2024/03/28 00:23:28;;;;;;;6.40;5.47;;;9.20;99.90;;;;;;4999990;28;20026;-35
2024/03/28 00:25:56;;;;;;;5.22;4.72;;;9.20;99.90;;;;;;4999331;28;20034;-32
2024/03/28 00:28:22;;;;;;;5.35;4.82;;;9.20;99.90;;;;;;5000074;28;20034;-35
2024/03/28 00:30:48;;;;;;;6.30;5.63;;;9.20;99.90;;;;;;5003533;28;20033;-32
2024/03/28 00:33:15;;;;;;;5.68;4.88;;;9.20;99.90;;;;;;5003073;28;20072;-34
2024/03/28 00:35:45;;;;;;;5.47;4.90;;;9.10;99.90;;;;;;5003857;28;20041;-33
2024/03/28 00:38:11;;;;;;;5.60;5.10;;;9.10;99.90;;;;;;5003976;28;20033;-35
2024/03/28 00:40:45;;;;;;;5.30;4.68;;;9.20;99.90;;;;;;5003675;28;20102;-33
2024/03/28 00:43:10;;;;;;;5.25;4.68;;;9.10;99.90;;;;;;5002959;28;20036;-34
2024/03/28 00:45:36;;;;;;;5.95;5.38;;;9.10;99.90;;;;;;5003414;28;20034;-34
2024/03/28 00:48:03;;;;;;;5.20;4.70;;;9.10;99.90;;;;;;5003819;28;20026;-35
2024/03/28 00:50:28;;;;;;;5.50;5.00;;;9.10;99.90;;;;;;5004509;28;20069;-36
2024/03/28 00:52:54;;;;;;;6.88;5.93;;;9.10;99.90;;;;;;5002753;28;20160;-30
2024/03/28 00:55:19;;;;;;;6.93;5.60;;;9.10;99.90;;;;;;5003096;28;20041;-34
2024/03/28 00:57:45;;;;;;;6.43;5.70;;;9.10;99.90;;;;;;5003066;28;20041;-37
2024/03/28 01:00:11;;;;;;;6.32;5.72;;;9.00;99.90;;;;;;5002189;28;20038;-35
2024/03/28 01:02:36;;;;;;;6.28;5.60;;;9.10;99.90;;;;;;5003756;28;20396;-34
2024/03/28 01:05:02;;;;;;;6.53;5.55;;;9.10;99.90;;;;;;5003383;28;20893;-34
2024/03/28 01:07:27;;;;;;;6.32;5.57;;;9.10;99.90;;;;;;5003157;28;20082;-34
2024/03/28 01:09:53;;;;;;;5.40;4.90;;;9.10;99.90;;;;;;5003352;28;20582;-35
2024/03/28 01:12:18;;;;;;;6.18;5.30;;;9.10;99.90;;;;;;5003130;28;20033;-33
2024/03/28 01:14:44;;;;;;;5.28;4.78;;;9.10;99.90;;;;;;5002968;28;20041;-33
2024/03/28 01:17:09;;;;;;;6.22;5.03;;;9.10;99.90;;;;;;5003064;28;20022;-33
2024/03/28 01:19:35;;;;;;;6.75;5.70;;;9.10;99.90;;;;;;5003386;28;20022;-33
2024/03/28 01:22:01;;;;;;;4.63;4.22;;;9.10;99.90;;;;;;5002227;28;20041;-34
2024/03/28 01:24:26;;;;;;;5.25;4.70;;;9.10;99.90;;;;;;5002576;28;20397;-34
2024/03/28 01:26:52;;;;;;;4.75;4.30;;;9.10;99.90;;;;;;5002706;28;20063;-36
2024/03/28 01:29:17;;;;;;;5.07;4.55;;;9.10;99.90;;;;;;5002299;28;20054;-36
2024/03/28 01:31:49;;;;;;;5.22;4.72;;;9.10;99.90;;;;;;5003231;28;20101;-37
2024/03/28 01:34:15;;;;;;;5.97;5.38;;;9.10;99.90;;;;;;5002232;28;20618;-33
2024/03/28 01:36:46;;;;;;;5.50;5.00;;;9.10;99.90;;;;;;5002405;28;20030;-35
2024/03/28 01:39:12;;;;;;;5.43;4.93;;;9.10;99.90;;;;;;5002319;28;20030;-34
2024/03/28 01:41:38;;;;;;;5.32;4.82;;;9.10;99.90;;;;;;5002246;28;20016;-32
2024/03/28 01:44:04;;;;;;;6.15;5.22;;;9.10;99.90;;;;;;5001782;28;20045;-36
2024/03/28 01:46:30;;;;;;;6.72;5.18;;;9.00;99.90;;;;;;5002491;28;20026;-33
2024/03/28 01:48:59;;;;;;;6.22;5.57;;;9.00;99.90;;;;;;5002390;28;20029;-33
2024/03/28 01:51:26;;;;;;;6.32;5.72;;;9.00;99.90;;;;;;5001722;28;20048;-31
2024/03/28 01:53:51;;;;;;;6.65;5.80;;;9.00;99.90;;;;;;5002004;28;20037;-36
2024/03/28 01:56:18;;;;;;;7.45;6.15;;;9.00;99.90;;;;;;5002180;28;20038;-35
2024/03/28 01:58:45;;;;;;;7.03;6.07;;;9.00;99.90;;;;;;5002987;28;20022;-32
2024/03/28 02:01:12;;;;;;;7.85;6.25;;;9.00;99.90;;;;;;5002377;28;20017;-35
2024/03/28 02:03:37;;;;;;;7.00;6.30;;;8.90;99.90;;;;;;5001879;28;20110;-36
2024/03/28 02:06:04;;;;;;;7.70;6.72;;;8.90;99.90;;;;;;5002027;28;20841;-34
2024/03/28 02:08:30;;;;;;;8.40;6.53;;;8.90;99.90;;;;;;5002429;28;20060;-35
2024/03/28 02:10:56;;;;;;;7.88;6.32;;;8.90;99.90;;;;;;5001026;28;20018;-33
2024/03/28 02:13:23;;;;;;;7.82;6.75;;;8.90;99.90;;;;;;5002100;28;20041;-35
2024/03/28 02:15:48;;;;;;;7.32;6.15;;;8.90;99.90;;;;;;5001842;28;20044;-34
2024/03/28 02:18:18;;;;;;;7.60;6.78;;;8.90;99.90;;;;;;5001095;28;20748;-33
2024/03/28 02:20:44;;;;;;;8.88;6.65;;;8.90;99.90;;;;;;5001670;28;20072;-33
2024/03/28 02:23:10;;;;;;;8.40;6.57;;;8.80;99.90;;;;;;5001190;28;20444;-33
2024/03/28 02:25:35;;;;;;;7.70;6.90;;;8.90;99.90;;;;;;5001875;28;20473;-36
2024/03/28 02:28:01;;;;;;;7.55;5.55;;;8.90;99.90;;;;;;5001529;28;20025;-36
2024/03/28 02:30:27;;;;;;;6.50;5.90;;;8.90;99.90;;;;;;5001383;28;20133;-35
2024/03/28 02:32:52;;;;;;;6.30;5.70;;;8.80;99.90;;;;;;5000379;28;20655;-33
2024/03/28 02:35:18;;;;;;;9.82;6.07;;;8.90;99.90;;;;;;5001846;28;20038;-35
2024/03/28 02:37:44;;;;;;;7.38;5.82;;;8.90;99.90;;;;;;5002005;28;20034;-31
2024/03/28 02:40:11;;;;;;;6.90;6.20;;;8.90;99.90;;;;;;5000405;28;20036;-33
2024/03/28 02:42:36;;;;;;;6.30;5.70;;;8.80;99.90;;;;;;5001768;28;20075;-36
2024/03/28 02:45:02;;;;;;;7.63;5.90;;;8.80;99.90;;;;;;5002008;28;20401;-31
2024/03/28 02:47:28;;;;;;;7.18;6.00;;;8.80;99.90;;;;;;5000860;28;20022;-35
2024/03/28 02:49:53;;;;;;;5.97;5.18;;;8.80;99.90;;;;;;5002130;28;20040;-34
2024/03/28 02:52:21;;;;;;;6.38;5.35;;;8.80;99.90;;;;;;5000670;28;20022;-31
2024/03/28 02:54:47;;;;;;;5.00;4.53;;;8.90;99.90;;;;;;5001501;28;20037;-35
2024/03/28 02:57:25;;;;;;;5.55;4.70;;;8.90;99.90;;;;;;5000609;28;20022;-33
2024/03/28 02:59:51;;;;;;;4.35;3.95;;;8.90;99.90;;;;;;4990107;28;20053;-32
2024/03/28 03:02:16;;;;;;;4.20;3.80;;;8.90;99.90;;;;;;5001106;28;20097;-33
2024/03/28 03:04:43;;;;;;;5.15;4.03;;;8.80;99.90;;;;;;5001545;28;20683;-33
2024/03/28 03:07:09;;;;;;;4.55;4.15;;;8.90;99.90;;;;;;4999699;28;20025;-33
2024/03/28 03:09:34;;;;;;;4.60;4.20;;;8.90;99.90;;;;;;5001508;28;20022;-33
2024/03/28 03:12:00;;;;;;;6.15;4.30;;;8.90;99.90;;;;;;5001170;28;20083;-34
2024/03/28 03:14:28;;;;;;;5.40;4.90;;;8.80;99.90;;;;;;4999390;28;20044;-36
2024/03/28 03:16:54;;;;;;;6.32;4.85;;;8.80;99.90;;;;;;5001204;28;20559;-32
2024/03/28 03:19:20;;;;;;;5.30;4.80;;;8.80;99.90;;;;;;5001197;28;20032;-35
2024/03/28 03:21:51;;;;;;;6.15;4.97;;;8.80;99.90;;;;;;5000387;28;20021;-36
2024/03/28 03:24:17;;;;;;;6.47;5.68;;;8.70;99.90;;;;;;5001027;28;20021;-35
2024/03/28 03:26:49;;;;;;;6.20;5.25;;;8.80;99.90;;;;;;5000863;28;20042;-34
2024/03/28 03:34:47;;;;;;;7.07;5.38;;;8.70;99.90;;;;;;5000322;28;20040;-33
2024/03/28 03:37:24;;;;;;;6.28;5.68;;;8.70;99.90;;;;;;5000876;28;20894;-31
2024/03/28 03:39:54;;;;;;;7.35;5.43;;;8.70;99.90;;;;;;5000915;28;20022;-34
2024/03/28 03:42:19;;;;;;;6.30;5.70;;;8.70;99.90;;;;;;5000601;28;20037;-30
2024/03/28 03:44:45;;;;;;;6.28;5.53;;;8.70;99.90;;;;;;5001858;28;20026;-34
2024/03/28 03:47:11;;;;;;;6.10;5.50;;;8.70;99.90;;;;;;5000981;28;20192;-33
2024/03/28 03:49:43;;;;;;;8.15;5.75;;;8.70;99.90;;;;;;5001064;28;20041;-33
2024/03/28 03:52:12;;;;;;;6.13;5.47;;;8.70;99.90;;;;;;5001268;28;20041;-33
2024/03/28 03:54:38;;;;;;;5.90;5.05;;;8.70;99.90;;;;;;5001002;28;20116;-34
2024/03/28 03:57:04;;;;;;;6.18;5.35;;;8.70;99.90;;;;;;5000416;28;20033;-34
2024/03/28 03:59:29;;;;;;;6.53;5.57;;;8.70;99.90;;;;;;5000595;28;20891;-34
2024/03/28 04:01:55;;;;;;;7.85;5.57;;;8.60;99.90;;;;;;5000806;28;20029;-34
2024/03/28 04:04:21;;;;;;;5.50;4.93;;;8.60;99.90;;;;;;5001023;28;20088;-34
2024/03/28 04:06:46;;;;;;;5.93;4.97;;;8.50;99.90;;;;;;5004940;28;20819;-35
2024/03/28 04:09:12;;;;;;;5.97;5.25;;;8.50;99.90;;;;;;5004021;28;20076;-30
2024/03/28 04:11:37;;;;;;;6.55;4.68;;;8.50;99.90;;;;;;5003794;28;20026;-33
2024/03/28 04:14:03;;;;;;;6.93;5.00;;;8.50;99.90;;;;;;5004563;28;20022;-32
2024/03/28 04:16:29;;;;;;;5.25;4.75;;;8.40;99.90;;;;;;5004233;28;20771;-34
2024/03/28 04:18:54;;;;;;;5.13;4.55;;;8.40;99.90;;;;;;5003921;28;20113;-31
2024/03/28 04:21:20;;;;;;;7.10;4.75;;;8.40;99.90;;;;;;5004660;28;20196;-33
2024/03/28 04:23:46;;;;;;;6.00;4.68;;;8.40;99.90;;;;;;5004387;28;20892;-32
2024/03/28 04:26:12;;;;;;;6.07;4.70;;;8.40;99.90;;;;;;5004115;28;20045;-37
2024/03/28 04:28:37;;;;;;;4.95;4.45;;;8.40;99.90;;;;;;5003932;28;20047;-37
2024/03/28 04:31:03;;;;;;;5.78;4.53;;;8.40;99.90;;;;;;5003242;28;20029;-36
2024/03/28 04:33:32;;;;;;;6.40;4.57;;;8.40;99.90;;;;;;5004621;28;20029;-36
2024/03/28 04:35:57;;;;;;;4.97;4.47;;;8.40;99.90;;;;;;5003142;28;20030;-33
2024/03/28 04:38:23;;;;;;;5.00;4.50;;;8.30;99.90;;;;;;5003325;28;20212;-33
2024/03/28 04:40:49;;;;;;;6.03;4.90;;;8.30;99.90;;;;;;5004142;28;20040;-33
2024/03/28 04:43:14;;;;;;;5.72;4.60;;;8.30;99.90;;;;;;5004480;28;20037;-31
2024/03/28 04:45:40;;;;;;;6.47;4.90;;;8.30;99.90;;;;;;5003245;28;20033;-30
2024/03/28 04:48:09;;;;;;;6.63;5.40;;;8.30;99.90;;;;;;5003386;28;20025;-36
2024/03/28 04:50:34;;;;;;;6.55;5.15;;;8.30;99.90;;;;;;5004235;28;20109;-34
2024/03/28 04:53:00;;;;;;;7.25;6.15;;;8.30;99.90;;;;;;5003340;28;20488;-30
2024/03/28 04:55:26;;;;;;;8.52;7.15;;;8.30;99.90;;;;;;5004482;28;20041;-34
2024/03/28 04:57:51;;;;;;;8.15;6.65;;;8.30;99.90;;;;;;5003525;28;20036;-36
2024/03/28 05:00:17;;;;;;;7.05;6.30;;;8.30;99.90;;;;;;5002709;28;20137;-36
2024/03/28 05:02:42;;;;;;;8.30;7.35;;;8.20;99.90;;;;;;5003452;28;20545;-33
2024/03/28 05:05:08;;;;;;;8.30;6.72;;;8.20;99.90;;;;;;5002856;28;20613;-33
2024/03/28 05:07:37;;;;;;;10.23;7.47;;;8.20;99.90;;;;;;5002673;28;20022;-35
2024/03/28 05:10:04;;;;;;;9.93;8.02;;;8.20;99.90;;;;;;5003442;28;20037;-35
2024/03/28 05:12:30;;;;;;;8.80;7.13;;;8.10;99.90;;;;;;5003494;28;20054;-32
2024/03/28 05:14:57;;;;;;;8.82;7.43;;;8.10;99.90;;;;;;5002684;28;20034;-32
2024/03/28 05:17:23;;;;;;;9.88;8.60;;;8.10;99.90;;;;;;5002117;28;20026;-31
2024/03/28 05:19:48;;;;;;;8.93;7.97;;;8.10;99.90;;;;;;5002677;28;20052;-33
2024/03/28 05:22:14;;;;;;;9.60;8.57;;;8.10;99.90;;;;;;5002456;28;20030;-37
2024/03/28 05:24:39;;;;;;;11.00;8.18;;;8.10;99.90;;;;;;5002859;28;20022;-38
2024/03/28 05:27:05;;;;;;;8.75;7.65;;;8.00;99.90;;;;;;5001827;28;20030;-34
2024/03/28 05:29:31;;;;;;;10.93;7.68;;;8.00;99.90;;;;;;5003319;28;20375;-36
2024/03/28 05:31:56;;;;;;;9.73;7.90;;;8.00;99.90;;;;;;5003273;28;20034;-36
2024/03/28 05:34:22;;;;;;;9.98;8.13;;;8.00;99.90;;;;;;5001859;28;20559;-35
2024/03/28 05:36:48;;;;;;;8.40;7.47;;;8.00;99.90;;;;;;5002512;28;20033;-35
2024/03/28 05:39:14;;;;;;;8.95;7.18;;;8.00;99.90;;;;;;5002381;28;20060;-33
2024/03/28 05:41:43;;;;;;;9.50;6.88;;;8.00;99.90;;;;;;5002188;28;20108;-31
2024/03/28 05:44:08;;;;;;;9.27;6.85;;;8.00;99.90;;;;;;5002236;28;20055;-32
2024/03/28 05:46:34;;;;;;;9.48;7.22;;;8.00;99.90;;;;;;5002523;28;20115;-32
2024/03/28 05:49:00;;;;;;;9.02;6.72;;;8.00;99.90;;;;;;5001673;28;20049;-34
2024/03/28 05:51:25;;;;;;;7.07;6.05;;;8.00;99.90;;;;;;5002853;28;20025;-34
2024/03/28 05:53:51;;;;;;;8.48;6.45;;;8.00;99.90;;;;;;5002539;28;20017;-35
2024/03/28 05:56:20;;;;;;;7.43;6.55;;;8.00;99.90;;;;;;5002302;28;20487;-31
2024/03/28 05:58:46;;;;;;;8.07;6.70;;;8.00;99.90;;;;;;5003049;28;20016;-32
2024/03/28 06:01:13;;;;;;;7.50;6.30;;;8.00;99.90;;;;;;5002804;28;20037;-33
2024/03/28 06:03:39;;;;;;;7.28;5.93;;;8.00;99.90;;;;;;5002492;28;20029;-36
2024/03/28 06:06:05;;;;;;;6.75;6.05;;;8.00;99.90;;;;;;5002601;28;20038;-36
2024/03/28 06:08:31;;;;;;;7.00;5.32;;;8.00;99.90;;;;;;5003208;28;20022;-37
2024/03/28 06:10:57;;;;;;;6.40;4.80;;;8.00;99.90;;;;;;5000626;28;20033;-34
2024/03/28 06:13:23;;;;;;;6.68;5.68;;;8.10;99.90;;;;;;4999727;28;20065;-35
2024/03/28 06:15:51;;;;;;;8.20;5.60;;;8.20;99.90;;;;;;5001428;28;20083;-34
2024/03/28 06:18:17;;;;;;;4.85;4.40;;;8.20;99.90;;;;;;5000868;28;20045;-33
2024/03/28 06:20:43;;;;;;;5.47;4.47;;;8.20;99.90;;;;;;5001142;28;20030;-36
2024/03/28 06:23:08;;;;;;;4.43;4.03;;;8.20;99.90;;;;;;5000099;28;20058;-30
2024/03/28 06:25:38;;;;;;;4.47;3.85;;;8.30;99.90;;;;;;5000335;28;20719;-34
2024/03/28 06:28:08;;;;;;;5.80;4.55;;;8.30;99.90;;;;;;4979944;28;20096;-33
2024/03/28 06:30:35;;;;;;;4.25;3.80;;;8.40;99.90;;;;;;4995050;28;20042;-34
2024/03/28 06:33:01;;;;;;;4.10;3.70;;;8.50;99.90;;;;;;5000625;28;20026;-32
2024/03/28 06:35:27;;;;;;;4.45;4.00;;;8.50;99.90;;;;;;5000299;28;20056;-29
2024/03/28 06:37:53;;;;;;;5.35;3.83;;;8.50;99.90;;;;;;4999180;28;20029;-32
2024/03/28 06:40:19;;;;;;;4.10;3.50;;;8.50;99.90;;;;;;5000554;28;20105;-33
2024/03/28 06:42:44;;;;;;;4.00;3.60;;;8.50;99.90;;;;;;5001149;28;20068;-34
2024/03/28 06:45:10;;;;;;;4.53;3.45;;;8.50;99.90;;;;;;5000421;28;20706;-36
2024/03/28 06:47:35;;;;;;;3.08;2.80;;;8.50;99.90;;;;;;5001062;28;20026;-35
2024/03/28 06:50:01;;;;;;;3.40;3.10;;;8.50;99.90;;;;;;5000886;28;20022;-35
2024/03/28 06:52:27;;;;;;;3.67;3.38;;;8.50;99.90;;;;;;5000220;28;20026;-34
2024/03/28 06:54:53;;;;;;;3.47;3.17;;;8.50;99.90;;;;;;5000584;28;20045;-33
2024/03/28 06:57:19;;;;;;;4.00;3.20;;;8.50;99.90;;;;;;4999836;28;20038;-36
2024/03/28 06:59:44;;;;;;;3.35;3.05;;;8.50;99.90;;;;;;4997041;28;20029;-35
2024/03/28 07:02:10;;;;;;;4.32;3.75;;;8.50;99.90;;;;;;4998679;28;20022;-33
2024/03/28 07:04:36;;;;;;;3.70;3.33;;;8.60;99.90;;;;;;5000586;28;20065;-34
2024/03/28 07:07:04;;;;;;;3.85;3.08;;;8.70;99.90;;;;;;4999045;28;20120;-35
2024/03/28 07:09:30;;;;;;;3.42;3.13;;;8.80;99.90;;;;;;5001285;28;20030;-33
2024/03/28 07:11:56;;;;;;;3.90;2.97;;;8.90;99.90;;;;;;5000656;28;20018;-35
2024/03/28 07:14:21;;;;;;;3.10;2.90;;;9.00;99.90;;;;;;4999523;28;20030;-31
2024/03/28 07:16:47;;;;;;;2.95;2.70;;;9.10;99.90;;;;;;5000445;28;20034;-33
2024/03/28 07:19:13;;;;;;;2.45;2.22;;;9.20;99.90;;;;;;5001383;28;20492;-35
2024/03/28 07:21:45;;;;;;;2.50;2.30;;;9.30;99.90;;;;;;5000245;28;20033;-31
2024/03/28 07:24:10;;;;;;;2.53;2.30;;;9.40;99.90;;;;;;5000766;28;20084;-32
2024/03/28 07:26:37;;;;;;;2.90;2.60;;;9.50;99.90;;;;;;5000655;28;20451;-31
2024/03/28 07:29:03;;;;;;;2.38;2.17;;;9.50;99.90;;;;;;5001221;28;20173;-34
2024/03/28 07:31:30;;;;;;;2.55;2.35;;;9.60;99.90;;;;;;5001284;28;20129;-35
2024/03/28 07:34:02;;;;;;;2.33;2.13;;;9.70;99.90;;;;;;4989884;28;20739;-32
2024/03/28 07:36:27;;;;;;;2.30;2.10;;;9.70;99.90;;;;;;5000351;28;20568;-34
2024/03/28 07:38:53;;;;;;;2.50;2.28;;;9.80;99.90;;;;;;5001153;28;20208;-30
2024/03/28 07:41:19;;;;;;;2.17;1.98;;;10.00;99.90;;;;;;5005971;28;20025;-31
2024/03/28 07:43:45;;;;;;;2.55;2.00;;;10.00;99.90;;;;;;5007505;28;20014;-31
2024/03/28 07:46:10;;;;;;;2.30;2.10;;;10.10;99.90;;;;;;5007072;28;20026;-36
2024/03/28 07:48:37;;;;;;;2.30;2.10;;;10.10;99.90;;;;;;5006175;28;20049;-34
2024/03/28 07:51:04;;;;;;;2.45;2.15;;;10.10;99.90;;;;;;5007240;28;20030;-34
2024/03/28 07:53:31;;;;;;;2.55;2.35;;;10.10;99.90;;;;;;5007373;28;20026;-33
2024/03/28 07:56:00;;;;;;;2.47;2.28;;;10.10;99.90;;;;;;5006715;28;20030;-31
2024/03/28 07:58:25;;;;;;;2.60;2.35;;;10.10;99.90;;;;;;5006713;28;20026;-36
2024/03/28 08:00:52;;;;;;;2.20;2.00;;;10.00;99.90;;;;;;5007363;28;20068;-32
2024/03/28 08:03:18;;;;;;;2.20;2.00;;;10.00;99.90;;;;;;5006504;28;20099;-35
2024/03/28 08:05:47;;;;;;;3.45;2.13;;;10.00;99.90;;;;;;5007631;28;20160;-34
2024/03/28 08:08:13;;;;;;;2.60;2.33;;;9.90;99.90;;;;;;5007156;28;20057;-32
2024/03/28 08:10:38;;;;;;;2.92;2.10;;;9.90;99.90;;;;;;5006990;28;20026;-31
2024/03/28 08:13:04;;;;;;;2.10;1.98;;;9.90;99.90;;;;;;5006462;28;20029;-33
2024/03/28 08:15:33;;;;;;;1.80;1.70;;;9.90;99.90;;;;;;5006449;28;20061;-34
2024/03/28 08:18:00;;;;;;;1.65;1.55;;;9.90;99.90;;;;;;5005462;28;20022;-33
2024/03/28 08:20:28;;;;;;;1.92;1.60;;;9.90;99.90;;;;;;5006252;28;20040;-33
2024/03/28 08:22:54;;;;;;;2.63;1.95;;;9.90;99.90;;;;;;5005003;28;20087;-33
2024/03/28 08:25:22;;;;;;;2.67;2.00;;;9.90;99.90;;;;;;5006654;28;20124;-34
2024/03/28 08:27:47;;;;;;;2.80;1.75;;;9.90;99.90;;;;;;5006106;28;20026;-34
2024/03/28 08:30:15;;;;;;;2.50;2.10;;;9.90;99.90;;;;;;5004401;28;20053;-36
2024/03/28 08:32:40;;;;;;;1.85;1.60;;;9.90;99.90;;;;;;5006798;28;20033;-34
2024/03/28 08:35:06;;;;;;;2.00;1.67;;;9.80;99.90;;;;;;5005462;28;20033;-33
2024/03/28 08:37:32;;;;;;;2.10;1.90;;;9.80;99.90;;;;;;5006413;28;20041;-35
2024/03/28 08:40:00;;;;;;;2.20;2.00;;;9.70;99.90;;;;;;5005953;28;20026;-36
2024/03/28 08:42:26;;;;;;;2.33;1.92;;;9.60;99.90;;;;;;5007468;28;20029;-36
2024/03/28 08:44:52;;;;;;;2.95;1.88;;;9.60;99.90;;;;;;5005585;28;20139;-32
2024/03/28 08:47:17;;;;;;;2.90;2.10;;;9.50;99.90;;;;;;5006698;28;20038;-34
2024/03/28 08:49:46;;;;;;;1.75;1.65;;;9.50;99.90;;;;;;5006541;28;20026;-33
2024/03/28 08:52:12;;;;;;;2.15;1.60;;;9.40;99.90;;;;;;5002174;28;20025;-35
2024/03/28 08:54:38;;;;;;;3.33;2.17;;;9.40;99.90;;;;;;5003628;28;20749;-32
2024/03/28 08:57:04;;;;;;;1.85;1.75;;;9.40;99.90;;;;;;5003465;28;20022;-32
2024/03/28 08:59:30;;;;;;;1.80;1.70;;;9.40;99.90;;;;;;5003045;28;20790;-34
2024/03/28 09:01:55;;;;;;;1.95;1.83;;;9.30;99.90;;;;;;5003741;28;20845;-31
2024/03/28 09:04:21;;;;;;;1.45;1.30;;;9.30;99.90;;;;;;5003358;28;20057;-34
2024/03/28 09:06:47;;;;;;;1.90;1.55;;;9.30;99.90;;;;;;5001922;28;20014;-30
2024/03/28 09:09:14;;;;;;;1.58;1.48;;;9.30;99.90;;;;;;5002820;28;20030;-31
2024/03/28 09:11:41;;;;;;;1.65;1.55;;;9.30;99.90;;;;;;5003562;28;20030;-32
2024/03/28 09:14:06;;;;;;;1.52;1.42;;;9.40;99.90;;;;;;5002462;28;20060;-34
2024/03/28 09:16:34;;;;;;;1.50;1.30;;;9.40;99.90;;;;;;5002944;28;20497;-35
2024/03/28 09:19:00;;;;;;;1.73;1.50;;;9.40;99.90;;;;;;5002807;28;20033;-35
2024/03/28 09:21:26;;;;;;;2.60;2.25;;;9.40;99.90;;;;;;5002930;28;20556;-32
2024/03/28 09:23:52;;;;;;;3.22;2.10;;;9.40;99.90;;;;;;5003446;28;20022;-34
2024/03/28 09:26:20;;;;;;;2.72;1.67;;;9.40;99.90;;;;;;5001972;28;20076;-36
2024/03/28 09:28:52;;;;;;;1.70;1.60;;;9.30;99.90;;;;;;5002415;28;20584;-30
2024/03/28 09:31:17;;;;;;;1.63;1.52;;;9.30;99.90;;;;;;5002521;28;20038;-33
2024/03/28 09:33:43;;;;;;;1.58;1.48;;;9.30;99.90;;;;;;5002363;28;20032;-35
2024/03/28 09:36:09;;;;;;;2.13;1.92;;;9.30;99.90;;;;;;5002137;28;20069;-36
2024/03/28 09:38:34;;;;;;;1.90;1.80;;;9.30;99.90;;;;;;5003091;28;20030;-31
2024/03/28 09:41:03;;;;;;;1.98;1.70;;;9.30;99.90;;;;;;5001852;28;20040;-34
2024/03/28 09:43:29;;;;;;;1.80;1.40;;;9.30;99.90;;;;;;5003030;28;20093;-36
2024/03/28 09:45:59;;;;;;;2.35;1.50;;;9.30;99.90;;;;;;5003097;28;20037;-34
2024/03/28 09:48:24;;;;;;;1.73;1.40;;;9.30;99.90;;;;;;4991007;28;20921;-35
2024/03/28 09:50:53;;;;;;;1.27;1.17;;;9.30;99.90;;;;;;5002445;28;20030;-35
2024/03/28 09:53:19;;;;;;;1.30;1.20;;;9.30;99.90;;;;;;5001938;28;20026;-34
2024/03/28 09:55:44;;;;;;;1.38;1.27;;;9.40;99.90;;;;;;5001651;28;20045;-34
2024/03/28 09:58:10;;;;;;;1.80;1.17;;;9.40;99.90;;;;;;5001548;28;20473;-35
2024/03/28 10:00:36;;;;;;;1.50;1.40;;;9.40;99.90;;;;;;5002713;28;20034;-34
2024/03/28 10:03:29;;;;;;;1.13;1.10;;;9.40;99.90;;;;;;5000980;28;20022;-34
2024/03/28 10:05:54;;;;;;;2.50;1.88;;;9.40;99.90;;;;;;5002459;28;20033;-32
2024/03/28 10:08:20;;;;;;;1.95;1.85;;;9.50;99.90;;;;;;5001452;28;20377;-33
2024/03/28 10:10:47;;;;;;;1.70;1.52;;;9.40;99.90;;;;;;5002616;28;20497;-34
2024/03/28 10:13:12;;;;;;;1.35;1.25;;;9.40;99.90;;;;;;5002070;28;20030;-34
2024/03/28 10:15:38;;;;;;;1.50;1.40;;;9.40;99.90;;;;;;5001843;28;20057;-35
2024/03/28 10:18:05;;;;;;;2.00;1.70;;;9.50;99.90;;;;;;5001445;28;20053;-34
2024/03/28 10:20:32;;;;;;;1.98;1.73;;;9.50;99.90;;;;;;5002398;28;20076;-35
2024/03/28 10:23:00;;;;;;;2.78;1.70;;;9.50;99.90;;;;;;5001423;28;20116;-34
2024/03/28 10:25:26;;;;;;;1.67;1.58;;;9.50;99.90;;;;;;5002276;28;20038;-35
2024/03/28 10:28:00;;;;;;;2.45;1.80;;;9.50;99.90;;;;;;5001692;28;20882;-32
2024/03/28 10:30:26;;;;;;;1.63;1.52;;;9.50;99.90;;;;;;5000880;28;20053;-34
2024/03/28 10:33:05;;;;;;;1.92;1.40;;;9.40;99.90;;;;;;5001472;28;20231;-36
2024/03/28 10:35:34;;;;;;;1.52;1.40;;;9.40;99.90;;;;;;5002214;28;20044;-34
2024/03/28 10:38:04;;;;;;;2.03;1.83;;;9.30;99.90;;;;;;5000562;28;20485;-33
2024/03/28 10:40:32;;;;;;;2.28;1.65;;;9.30;99.90;;;;;;5001995;28;20026;-31
2024/03/28 10:43:00;;;;;;;1.60;1.50;;;9.30;99.90;;;;;;5000930;28;20394;-34
2024/03/28 10:45:41;;;;;;;1.20;1.10;;;9.20;99.90;;;;;;5000933;28;20092;-33
2024/03/28 10:48:16;;;;;;;1.25;1.10;;;9.20;99.90;;;;;;5001078;28;20492;-30
2024/03/28 10:51:06;;;;;;;1.38;1.00;;;9.20;99.90;;;;;;5001785;28;20022;-36
2024/03/28 10:53:41;;;;;;;1.20;1.10;;;9.20;99.90;;;;;;5001590;28;20049;-35
2024/03/28 10:56:12;;;;;;;1.30;1.20;;;9.20;99.90;;;;;;5001644;28;20041;-32
2024/03/28 10:58:38;;;;;;;0.90;0.90;;;9.20;99.90;;;;;;4999796;28;20056;-33
2024/03/28 11:01:08;;;;;;;1.55;1.00;;;9.30;99.90;;;;;;5001571;28;20772;-38
2024/03/28 11:03:34;;;;;;;1.23;1.13;;;9.30;99.90;;;;;;5001651;28;20014;-35
2024/03/28 11:06:00;;;;;;;1.73;1.00;;;9.30;99.90;;;;;;4989725;28;20030;-35
2024/03/28 11:08:31;;;;;;;1.50;1.02;;;9.30;99.90;;;;;;5001264;28;20021;-36
2024/03/28 11:10:59;;;;;;;1.42;1.10;;;9.40;99.90;;;;;;5001183;28;20068;-35
2024/03/28 11:13:26;;;;;;;1.55;1.45;;;9.40;99.90;;;;;;4999804;28;20370;-30
2024/03/28 11:16:03;;;;;;;2.30;1.40;;;9.50;99.90;;;;;;4996891;28;20030;-33
2024/03/28 11:18:30;;;;;;;1.58;1.48;;;9.60;99.90;;;;;;5000470;28;20021;-34
2024/03/28 11:20:55;;;;;;;1.30;1.20;;;9.70;99.90;;;;;;5000544;28;20021;-34
2024/03/28 11:23:21;;;;;;;1.60;1.50;;;9.80;99.90;;;;;;5001244;28;20033;-33
2024/03/28 11:25:47;;;;;;;1.95;1.80;;;9.80;99.90;;;;;;4999774;28;20040;-31
2024/03/28 11:28:14;;;;;;;2.92;1.80;;;9.90;99.90;;;;;;5000272;28;20034;-32
2024/03/28 11:30:52;;;;;;;2.28;1.95;;;10.00;99.90;;;;;;4999102;28;20131;-30
2024/03/28 11:33:43;;;;;;;3.25;2.10;;;10.00;99.90;;;;;;4980205;28;20030;-35
2024/03/28 11:36:09;;;;;;;2.50;1.90;;;10.00;99.90;;;;;;4998636;28;20104;-33
2024/03/28 11:38:38;;;;;;;1.58;1.48;;;10.00;99.90;;;;;;5001286;28;20026;-33
2024/03/28 11:41:04;;;;;;;2.40;2.10;;;10.10;99.90;;;;;;4999485;28;20030;-30
2024/03/28 11:43:31;;;;;;;1.98;1.80;;;10.10;99.90;;;;;;5000652;28;20028;-34
2024/03/28 11:46:01;;;;;;;2.53;2.20;;;10.30;99.90;;;;;;5000684;28;20087;-36
2024/03/28 11:48:36;;;;;;;2.42;2.00;;;10.40;99.90;;;;;;4999745;28;20756;-35
2024/03/28 11:51:05;;;;;;;2.45;2.25;;;10.50;99.90;;;;;;5000555;28;20088;-33
2024/03/28 11:53:53;;;;;;;2.70;2.10;;;10.50;99.90;;;;;;5000962;28;20469;-38
2024/03/28 11:56:21;;;;;;;2.83;2.28;;;10.60;99.90;;;;;;5000239;28;20038;-35
2024/03/28 11:58:47;;;;;;;3.53;2.22;;;10.70;99.90;;;;;;5000945;28;20038;-36
2024/03/28 12:01:12;;;;;;;3.53;2.20;;;10.70;99.90;;;;;;4999804;28;20042;-34
2024/03/28 12:03:44;;;;;;;6.47;3.00;;;10.80;99.90;;;;;;5001369;28;20050;-35
2024/03/28 12:06:10;;;;;;;7.72;3.50;;;10.90;99.90;;;;;;5000192;28;20121;-36
2024/03/28 12:08:38;;;;;;;4.50;3.22;;;10.90;99.90;;;;;;4999850;28;20040;-34
2024/03/28 12:11:05;;;;;;;4.93;3.47;;;11.00;99.90;;;;;;4999724;28;20064;-34
2024/03/28 12:13:32;;;;;;;4.55;3.67;;;11.00;99.90;;;;;;5001049;28;20038;-32
2024/03/28 12:16:02;;;;;;;3.10;2.80;;;11.00;99.90;;;;;;4999933;28;20064;-32
2024/03/28 12:18:31;;;;;;;3.25;2.88;;;11.10;99.90;;;;;;4990009;28;20827;-31
2024/03/28 12:21:05;;;;;;;3.70;2.90;;;11.10;99.90;;;;;;5000203;28;20022;-34
2024/03/28 12:23:32;;;;;;;3.33;2.83;;;11.20;99.90;;;;;;5000841;28;20056;-32
2024/03/28 12:25:57;;;;;;;4.10;3.35;;;11.30;99.90;;;;;;5002456;28;20049;-34
2024/03/28 12:28:24;;;;;;;4.35;3.00;;;11.40;99.90;;;;;;5004111;28;20659;-34
2024/03/28 12:30:49;;;;;;;3.60;3.08;;;11.50;99.90;;;;;;5003754;28;20106;-33
2024/03/28 12:33:16;;;;;;;6.28;3.22;;;11.50;99.90;;;;;;5003417;28;20046;-34
2024/03/28 12:35:42;;;;;;;4.25;3.35;;;11.60;99.90;;;;;;5004416;28;20728;-36
2024/03/28 12:38:13;;;;;;;5.35;3.35;;;11.60;99.90;;;;;;5003483;28;20061;-33
2024/03/28 12:40:47;;;;;;;3.70;2.70;;;11.70;99.90;;;;;;5004500;28;20101;-33
2024/03/28 12:43:17;;;;;;;3.53;2.60;;;11.80;99.90;;;;;;5002612;28;20080;-30
2024/03/28 12:45:43;;;;;;;3.03;2.40;;;11.90;99.90;;;;;;5003555;28;20053;-29
2024/03/28 12:48:10;;;;;;;3.00;2.70;;;12.00;99.90;;;;;;5003010;28;20516;-35
2024/03/28 12:50:37;;;;;;;3.60;2.40;;;12.00;99.90;;;;;;5003758;28;20025;-34
2024/03/28 12:53:03;;;;;;;3.95;2.20;;;12.00;99.90;;;;;;5003682;28;20026;-37
2024/03/28 12:55:29;;;;;;;3.78;2.20;;;12.10;99.90;;;;;;5003931;28;20131;-32
2024/03/28 12:57:54;;;;;;;2.10;1.80;;;12.10;99.90;;;;;;5002594;28;20732;-31
2024/03/28 13:00:21;;;;;;;2.67;1.70;;;12.20;99.90;;;;;;5003449;28;20077;-33